This is the latest recevied weather packets stored in our database for station/object M0CJS. If no packets are shown the sender has not sent any weather packets the latest 10 day(s).
| Time | Temp. | Humidity | Pressure | Rain* | Wind** | Luminosity | Snow |
|---|---|---|---|---|---|---|---|
| 1777052116 | 17.78° C | 39% | 1024.7 hPa | 0 mm | - | - | - |
| 1777049718 | 17.78° C | 41% | 1025 hPa | 0 mm | - | - | - |
| 1777047917 | 18.33° C | 41% | 1025.1 hPa | 0 mm | - | - | - |
| 1777044317 | 18.33° C | 39% | 1025.8 hPa | 0 mm | - | - | - |
| 1777043717 | 18.33° C | 40% | 1025.9 hPa | 0 mm | - | - | - |
| 1777041917 | 18.33° C | 41% | 1026.2 hPa | 0 mm | - | - | - |
| 1777034119 | 17.22° C | 46% | 1027.9 hPa | 0 mm | - | - | - |
| 1777033517 | 16.67° C | 47% | 1027.9 hPa | 0 mm | - | - | - |
| 1777028140 | 14.44° C | 55% | 1028.8 hPa | 0 mm | - | - | - |
| 1777026317 | 13.89° C | 58% | 1029.2 hPa | 0 mm | - | - | - |
| 1777025117 | 12.78° C | 63% | 1029.4 hPa | 0 mm | - | - | - |
| 1777022718 | 11.11° C | 69% | 1029.5 hPa | 0 mm | - | - | - |
| 1777018516 | 7.78° C | 80% | 1029.5 hPa | 0 mm | - | - | - |
| 1777017916 | 7.22° C | 83% | 1029.6 hPa | 0 mm | - | - | - |
| 1777014916 | 4.44° C | 92% | 1029.5 hPa | 0 mm | - | - | - |
| 1777011316 | 2.78° C | 95% | 1029.5 hPa | 0 mm | - | - | - |
| 1777010716 | 2.78° C | 96% | 1029.5 hPa | 0 mm | - | - | - |
| 1777006516 | 2.78° C | 95% | 1029.4 hPa | 0 mm | - | - | - |
| 1777005316 | 2.78° C | 94% | 1029.5 hPa | 0 mm | - | - | - |
| 1777001116 | 3.89° C | 94% | 1029.9 hPa | 0 mm | - | - | - |
| 1777000516 | 3.89° C | 94% | 1029.9 hPa | 0 mm | - | - | - |
| 1776992117 | 5° C | 95% | 1030.8 hPa | 0 mm | - | - | - |
| 1776985517 | 5° C | 92% | 1031.2 hPa | 0 mm | - | - | - |
| 1776984918 | 5° C | 91% | 1031.2 hPa | 0 mm | - | - | - |
| 1776983117 | 5.56° C | 90% | 1031.1 hPa | 0 mm | - | - | - |
* Rain latest hour (hover to see other rain measurements)
** Current wind speed in m/s (hover to see current wind gust speed)